sensor_id;sensor_type;location;lat;lon;timestamp;temperature;humidity
46676;DHT22;32412;51.478;5.694;2022-08-23T00:01:47;18.60;99.90
46676;DHT22;32412;51.478;5.694;2022-08-23T00:04:23;18.70;99.90
46676;DHT22;32412;51.478;5.694;2022-08-23T00:06:50;18.60;99.90
46676;DHT22;32412;51.478;5.694;2022-08-23T00:09:18;18.60;99.90
46676;DHT22;32412;51.478;5.694;2022-08-23T00:11:53;18.60;99.90
46676;DHT22;32412;51.478;5.694;2022-08-23T00:16:45;18.50;99.90
46676;DHT22;32412;51.478;5.694;2022-08-23T00:19:13;18.50;99.90
46676;DHT22;32412;51.478;5.694;2022-08-23T00:21:40;18.50;99.90
46676;DHT22;32412;51.478;5.694;2022-08-23T00:24:07;18.50;99.90
46676;DHT22;32412;51.478;5.694;2022-08-23T00:26:54;18.50;99.90
46676;DHT22;32412;51.478;5.694;2022-08-23T00:29:21;18.50;99.90
46676;DHT22;32412;51.478;5.694;2022-08-23T00:31:47;18.40;99.90
46676;DHT22;32412;51.478;5.694;2022-08-23T00:34:13;18.40;99.90
46676;DHT22;32412;51.478;5.694;2022-08-23T00:36:39;18.30;99.90
46676;DHT22;32412;51.478;5.694;2022-08-23T00:39:05;18.30;99.90
46676;DHT22;32412;51.478;5.694;2022-08-23T00:41:32;18.20;99.90
46676;DHT22;32412;51.478;5.694;2022-08-23T00:43:59;18.20;99.90
46676;DHT22;32412;51.478;5.694;2022-08-23T00:46:50;18.20;99.90
46676;DHT22;32412;51.478;5.694;2022-08-23T00:49:36;18.20;99.90
46676;DHT22;32412;51.478;5.694;2022-08-23T00:52:14;18.20;99.90
46676;DHT22;32412;51.478;5.694;2022-08-23T00:54:42;18.10;99.90
46676;DHT22;32412;51.478;5.694;2022-08-23T00:57:11;18.10;99.90
46676;DHT22;32412;51.478;5.694;2022-08-23T00:59:38;18.10;99.90
46676;DHT22;32412;51.478;5.694;2022-08-23T01:02:05;18.00;99.90
46676;DHT22;32412;51.478;5.694;2022-08-23T01:04:36;18.00;99.90
46676;DHT22;32412;51.478;5.694;2022-08-23T01:09:31;17.90;99.90
46676;DHT22;32412;51.478;5.694;2022-08-23T01:12:13;17.90;99.90
46676;DHT22;32412;51.478;5.694;2022-08-23T01:14:48;17.90;99.90
46676;DHT22;32412;51.478;5.694;2022-08-23T01:17:21;17.90;99.90
46676;DHT22;32412;51.478;5.694;2022-08-23T01:19:55;17.70;99.90
46676;DHT22;32412;51.478;5.694;2022-08-23T01:25:36;17.60;99.90
46676;DHT22;32412;51.478;5.694;2022-08-23T01:28:03;17.60;99.90
46676;DHT22;32412;51.478;5.694;2022-08-23T01:30:31;17.60;99.90
46676;DHT22;32412;51.478;5.694;2022-08-23T01:33:00;17.50;99.90
46676;DHT22;32412;51.478;5.694;2022-08-23T01:35:41;17.50;99.90
46676;DHT22;32412;51.478;5.694;2022-08-23T01:38:09;17.40;99.90
46676;DHT22;32412;51.478;5.694;2022-08-23T01:40:36;17.30;99.90
46676;DHT22;32412;51.478;5.694;2022-08-23T01:43:04;17.30;99.90
46676;DHT22;32412;51.478;5.694;2022-08-23T01:45:31;17.20;99.90
46676;DHT22;32412;51.478;5.694;2022-08-23T01:47:57;17.20;99.90
46676;DHT22;32412;51.478;5.694;2022-08-23T01:50:23;17.20;99.90
46676;DHT22;32412;51.478;5.694;2022-08-23T01:52:49;17.10;99.90
46676;DHT22;32412;51.478;5.694;2022-08-23T01:55:16;17.10;99.90
46676;DHT22;32412;51.478;5.694;2022-08-23T01:57:42;17.10;99.90
46676;DHT22;32412;51.478;5.694;2022-08-23T02:00:10;17.10;99.90
46676;DHT22;32412;51.478;5.694;2022-08-23T02:02:36;17.10;99.90
46676;DHT22;32412;51.478;5.694;2022-08-23T02:05:04;17.10;99.90
46676;DHT22;32412;51.478;5.694;2022-08-23T02:07:30;17.10;99.90
46676;DHT22;32412;51.478;5.694;2022-08-23T02:09:55;17.10;99.90
46676;DHT22;32412;51.478;5.694;2022-08-23T02:12:21;17.10;99.90
46676;DHT22;32412;51.478;5.694;2022-08-23T02:14:47;17.10;99.90
46676;DHT22;32412;51.478;5.694;2022-08-23T02:17:13;17.10;99.90
46676;DHT22;32412;51.478;5.694;2022-08-23T02:19:40;17.10;99.90
46676;DHT22;32412;51.478;5.694;2022-08-23T02:22:07;17.10;99.90
46676;DHT22;32412;51.478;5.694;2022-08-23T02:24:33;17.10;99.90
46676;DHT22;32412;51.478;5.694;2022-08-23T02:27:02;17.10;99.90
46676;DHT22;32412;51.478;5.694;2022-08-23T02:29:28;17.00;99.90
46676;DHT22;32412;51.478;5.694;2022-08-23T02:31:55;17.00;99.90
46676;DHT22;32412;51.478;5.694;2022-08-23T02:34:21;17.00;99.90
46676;DHT22;32412;51.478;5.694;2022-08-23T02:36:47;17.00;99.90
46676;DHT22;32412;51.478;5.694;2022-08-23T02:39:15;16.90;99.90
46676;DHT22;32412;51.478;5.694;2022-08-23T02:41:41;16.80;99.90
46676;DHT22;32412;51.478;5.694;2022-08-23T02:44:08;16.80;99.90
46676;DHT22;32412;51.478;5.694;2022-08-23T02:46:34;16.80;99.90
46676;DHT22;32412;51.478;5.694;2022-08-23T02:49:00;16.70;99.90
46676;DHT22;32412;51.478;5.694;2022-08-23T02:51:26;16.70;99.90
46676;DHT22;32412;51.478;5.694;2022-08-23T02:53:51;16.70;99.90
46676;DHT22;32412;51.478;5.694;2022-08-23T02:56:17;16.70;99.90
46676;DHT22;32412;51.478;5.694;2022-08-23T02:58:45;16.70;99.90
46676;DHT22;32412;51.478;5.694;2022-08-23T03:01:25;16.70;99.90
46676;DHT22;32412;51.478;5.694;2022-08-23T03:03:52;16.70;99.90
46676;DHT22;32412;51.478;5.694;2022-08-23T03:06:17;16.60;99.90
46676;DHT22;32412;51.478;5.694;2022-08-23T03:08:46;16.60;99.90
46676;DHT22;32412;51.478;5.694;2022-08-23T03:11:16;16.60;99.90
46676;DHT22;32412;51.478;5.694;2022-08-23T03:13:42;16.60;99.90
46676;DHT22;32412;51.478;5.694;2022-08-23T03:16:10;16.60;99.90
46676;DHT22;32412;51.478;5.694;2022-08-23T03:18:37;16.60;99.90
46676;DHT22;32412;51.478;5.694;2022-08-23T03:21:05;16.60;99.90
46676;DHT22;32412;51.478;5.694;2022-08-23T03:23:31;16.50;99.90
46676;DHT22;32412;51.478;5.694;2022-08-23T03:25:58;16.30;99.90
46676;DHT22;32412;51.478;5.694;2022-08-23T03:28:24;16.30;99.90
46676;DHT22;32412;51.478;5.694;2022-08-23T03:30:51;16.20;99.90
46676;DHT22;32412;51.478;5.694;2022-08-23T03:33:17;16.20;99.90
46676;DHT22;32412;51.478;5.694;2022-08-23T03:35:43;16.20;99.90
46676;DHT22;32412;51.478;5.694;2022-08-23T03:38:09;16.30;99.90
46676;DHT22;32412;51.478;5.694;2022-08-23T03:40:35;16.40;99.90
46676;DHT22;32412;51.478;5.694;2022-08-23T03:43:01;16.40;99.90
46676;DHT22;32412;51.478;5.694;2022-08-23T03:45:27;16.40;99.90
46676;DHT22;32412;51.478;5.694;2022-08-23T03:47:53;16.50;99.90
46676;DHT22;32412;51.478;5.694;2022-08-23T03:50:19;16.60;99.90
46676;DHT22;32412;51.478;5.694;2022-08-23T03:52:46;16.60;99.90
46676;DHT22;32412;51.478;5.694;2022-08-23T03:55:13;16.70;99.90
46676;DHT22;32412;51.478;5.694;2022-08-23T03:57:39;16.80;99.90
46676;DHT22;32412;51.478;5.694;2022-08-23T04:00:06;16.80;99.90
46676;DHT22;32412;51.478;5.694;2022-08-23T04:02:32;16.80;99.90
46676;DHT22;32412;51.478;5.694;2022-08-23T04:04:58;16.80;99.90
46676;DHT22;32412;51.478;5.694;2022-08-23T04:07:24;16.70;99.90
46676;DHT22;32412;51.478;5.694;2022-08-23T04:09:50;16.70;99.90
46676;DHT22;32412;51.478;5.694;2022-08-23T04:12:16;16.70;99.90
46676;DHT22;32412;51.478;5.694;2022-08-23T04:14:41;16.70;99.90
46676;DHT22;32412;51.478;5.694;2022-08-23T04:17:08;16.70;99.90
46676;DHT22;32412;51.478;5.694;2022-08-23T04:19:33;16.60;99.90
46676;DHT22;32412;51.478;5.694;2022-08-23T04:22:00;16.60;99.90
46676;DHT22;32412;51.478;5.694;2022-08-23T04:24:26;16.70;99.90
46676;DHT22;32412;51.478;5.694;2022-08-23T04:26:52;16.70;99.90
46676;DHT22;32412;51.478;5.694;2022-08-23T04:29:17;16.60;99.90
46676;DHT22;32412;51.478;5.694;2022-08-23T04:31:44;16.60;99.90
46676;DHT22;32412;51.478;5.694;2022-08-23T04:34:10;16.60;99.90
46676;DHT22;32412;51.478;5.694;2022-08-23T04:36:39;16.60;99.90
46676;DHT22;32412;51.478;5.694;2022-08-23T04:39:05;16.60;99.90
46676;DHT22;32412;51.478;5.694;2022-08-23T04:41:30;16.60;99.90
46676;DHT22;32412;51.478;5.694;2022-08-23T04:44:15;16.60;99.90
46676;DHT22;32412;51.478;5.694;2022-08-23T04:46:41;16.50;99.90
46676;DHT22;32412;51.478;5.694;2022-08-23T04:49:09;16.60;99.90
46676;DHT22;32412;51.478;5.694;2022-08-23T04:51:35;16.60;99.90
46676;DHT22;32412;51.478;5.694;2022-08-23T04:54:01;16.50;99.90
46676;DHT22;32412;51.478;5.694;2022-08-23T04:56:27;16.60;99.90
46676;DHT22;32412;51.478;5.694;2022-08-23T04:58:54;16.60;99.90
46676;DHT22;32412;51.478;5.694;2022-08-23T05:01:19;16.60;99.90
46676;DHT22;32412;51.478;5.694;2022-08-23T05:03:45;16.70;99.90
46676;DHT22;32412;51.478;5.694;2022-08-23T05:06:11;16.80;99.90
46676;DHT22;32412;51.478;5.694;2022-08-23T05:08:37;16.90;99.90
46676;DHT22;32412;51.478;5.694;2022-08-23T05:11:05;17.00;99.90
46676;DHT22;32412;51.478;5.694;2022-08-23T05:13:31;17.10;99.90
46676;DHT22;32412;51.478;5.694;2022-08-23T05:15:57;17.20;99.90
46676;DHT22;32412;51.478;5.694;2022-08-23T05:18:24;17.30;99.90
46676;DHT22;32412;51.478;5.694;2022-08-23T05:20:50;17.50;99.90
46676;DHT22;32412;51.478;5.694;2022-08-23T05:23:15;17.70;99.90
46676;DHT22;32412;51.478;5.694;2022-08-23T05:25:41;17.80;99.90
46676;DHT22;32412;51.478;5.694;2022-08-23T05:28:20;17.90;99.90
46676;DHT22;32412;51.478;5.694;2022-08-23T05:31:12;18.20;99.90
46676;DHT22;32412;51.478;5.694;2022-08-23T05:33:39;18.30;99.90
46676;DHT22;32412;51.478;5.694;2022-08-23T05:36:06;18.50;99.90
46676;DHT22;32412;51.478;5.694;2022-08-23T05:38:33;18.60;99.90
46676;DHT22;32412;51.478;5.694;2022-08-23T05:40:59;18.80;99.90
46676;DHT22;32412;51.478;5.694;2022-08-23T05:43:29;18.90;99.90
46676;DHT22;32412;51.478;5.694;2022-08-23T05:46:10;19.00;99.90
46676;DHT22;32412;51.478;5.694;2022-08-23T05:48:38;19.20;99.90
46676;DHT22;32412;51.478;5.694;2022-08-23T05:51:25;19.40;99.90
46676;DHT22;32412;51.478;5.694;2022-08-23T05:53:52;19.60;99.90
46676;DHT22;32412;51.478;5.694;2022-08-23T05:56:21;19.70;99.90
46676;DHT22;32412;51.478;5.694;2022-08-23T05:58:49;19.80;99.90
46676;DHT22;32412;51.478;5.694;2022-08-23T06:01:16;19.90;99.90
46676;DHT22;32412;51.478;5.694;2022-08-23T06:03:42;20.00;99.90
46676;DHT22;32412;51.478;5.694;2022-08-23T06:06:09;20.10;99.90
46676;DHT22;32412;51.478;5.694;2022-08-23T06:08:36;20.10;99.90
46676;DHT22;32412;51.478;5.694;2022-08-23T06:11:08;20.00;99.90
46676;DHT22;32412;51.478;5.694;2022-08-23T06:13:38;20.00;99.90
46676;DHT22;32412;51.478;5.694;2022-08-23T06:16:04;19.90;99.90
46676;DHT22;32412;51.478;5.694;2022-08-23T06:18:30;19.90;99.90
46676;DHT22;32412;51.478;5.694;2022-08-23T06:21:06;20.00;99.90
46676;DHT22;32412;51.478;5.694;2022-08-23T06:23:33;20.00;99.90
46676;DHT22;32412;51.478;5.694;2022-08-23T06:25:59;19.90;99.90
46676;DHT22;32412;51.478;5.694;2022-08-23T06:28:27;19.80;99.90
46676;DHT22;32412;51.478;5.694;2022-08-23T06:30:57;19.80;99.90
46676;DHT22;32412;51.478;5.694;2022-08-23T06:33:24;19.80;99.90
46676;DHT22;32412;51.478;5.694;2022-08-23T06:36:07;19.90;99.90
46676;DHT22;32412;51.478;5.694;2022-08-23T06:38:34;20.00;99.90
46676;DHT22;32412;51.478;5.694;2022-08-23T06:41:02;20.10;99.90
46676;DHT22;32412;51.478;5.694;2022-08-23T06:43:29;20.10;99.90
46676;DHT22;32412;51.478;5.694;2022-08-23T06:46:04;20.20;99.90
46676;DHT22;32412;51.478;5.694;2022-08-23T06:48:30;20.30;99.90
46676;DHT22;32412;51.478;5.694;2022-08-23T06:50:55;20.40;99.90
46676;DHT22;32412;51.478;5.694;2022-08-23T06:53:21;20.50;99.90
46676;DHT22;32412;51.478;5.694;2022-08-23T06:55:47;20.50;99.90
46676;DHT22;32412;51.478;5.694;2022-08-23T06:58:12;20.60;99.90
46676;DHT22;32412;51.478;5.694;2022-08-23T07:00:40;20.70;99.90
46676;DHT22;32412;51.478;5.694;2022-08-23T07:03:06;20.80;99.90
46676;DHT22;32412;51.478;5.694;2022-08-23T07:05:34;20.90;99.90
46676;DHT22;32412;51.478;5.694;2022-08-23T07:08:02;21.10;99.90
46676;DHT22;32412;51.478;5.694;2022-08-23T07:10:28;21.30;99.90
46676;DHT22;32412;51.478;5.694;2022-08-23T07:12:54;21.40;99.90
46676;DHT22;32412;51.478;5.694;2022-08-23T07:15:19;21.50;99.90
46676;DHT22;32412;51.478;5.694;2022-08-23T07:17:45;21.60;99.90
46676;DHT22;32412;51.478;5.694;2022-08-23T07:20:12;21.70;99.90
46676;DHT22;32412;51.478;5.694;2022-08-23T07:22:38;21.80;99.90
46676;DHT22;32412;51.478;5.694;2022-08-23T07:25:04;22.00;99.90
46676;DHT22;32412;51.478;5.694;2022-08-23T07:27:30;22.10;99.90
46676;DHT22;32412;51.478;5.694;2022-08-23T07:29:56;22.30;99.90
46676;DHT22;32412;51.478;5.694;2022-08-23T07:32:22;22.30;99.90
46676;DHT22;32412;51.478;5.694;2022-08-23T07:34:47;22.40;99.90
46676;DHT22;32412;51.478;5.694;2022-08-23T07:37:13;22.60;99.90
46676;DHT22;32412;51.478;5.694;2022-08-23T07:39:41;22.70;99.90
46676;DHT22;32412;51.478;5.694;2022-08-23T07:42:07;22.90;99.90
46676;DHT22;32412;51.478;5.694;2022-08-23T07:44:33;23.00;99.90
46676;DHT22;32412;51.478;5.694;2022-08-23T07:46:59;23.10;99.90
46676;DHT22;32412;51.478;5.694;2022-08-23T07:49:27;23.30;99.90
46676;DHT22;32412;51.478;5.694;2022-08-23T07:51:56;23.30;99.90
46676;DHT22;32412;51.478;5.694;2022-08-23T07:54:23;23.50;99.90
46676;DHT22;32412;51.478;5.694;2022-08-23T07:56:52;23.70;99.90
46676;DHT22;32412;51.478;5.694;2022-08-23T07:59:18;23.80;99.90
46676;DHT22;32412;51.478;5.694;2022-08-23T08:01:43;23.90;99.90
46676;DHT22;32412;51.478;5.694;2022-08-23T08:04:10;24.10;99.90
46676;DHT22;32412;51.478;5.694;2022-08-23T08:06:42;24.30;99.90
46676;DHT22;32412;51.478;5.694;2022-08-23T08:09:14;24.50;99.90
46676;DHT22;32412;51.478;5.694;2022-08-23T08:11:44;24.70;99.90
46676;DHT22;32412;51.478;5.694;2022-08-23T08:14:12;24.70;99.90
46676;DHT22;32412;51.478;5.694;2022-08-23T08:16:46;24.70;99.90
46676;DHT22;32412;51.478;5.694;2022-08-23T08:19:15;24.70;99.90
46676;DHT22;32412;51.478;5.694;2022-08-23T08:21:41;24.90;99.90
46676;DHT22;32412;51.478;5.694;2022-08-23T08:24:11;25.00;99.90
46676;DHT22;32412;51.478;5.694;2022-08-23T08:26:39;25.30;99.90
46676;DHT22;32412;51.478;5.694;2022-08-23T08:29:05;25.50;99.90
46676;DHT22;32412;51.478;5.694;2022-08-23T08:31:31;25.60;99.90
46676;DHT22;32412;51.478;5.694;2022-08-23T08:33:56;25.80;99.90
46676;DHT22;32412;51.478;5.694;2022-08-23T08:39:11;25.60;99.90
46676;DHT22;32412;51.478;5.694;2022-08-23T08:47:49;25.60;99.90
46676;DHT22;32412;51.478;5.694;2022-08-23T08:50:19;25.80;99.90
46676;DHT22;32412;51.478;5.694;2022-08-23T08:52:59;25.90;99.90
46676;DHT22;32412;51.478;5.694;2022-08-23T08:55:37;26.00;99.90
46676;DHT22;32412;51.478;5.694;2022-08-23T08:58:06;26.00;99.90
46676;DHT22;32412;51.478;5.694;2022-08-23T09:00:44;26.20;99.90
46676;DHT22;32412;51.478;5.694;2022-08-23T09:03:12;26.40;99.90
46676;DHT22;32412;51.478;5.694;2022-08-23T09:05:56;26.50;99.90
46676;DHT22;32412;51.478;5.694;2022-08-23T09:14:21;27.00;99.90
46676;DHT22;32412;51.478;5.694;2022-08-23T09:17:01;27.30;99.90
46676;DHT22;32412;51.478;5.694;2022-08-23T09:19:28;27.50;99.90
46676;DHT22;32412;51.478;5.694;2022-08-23T09:21:58;27.80;99.90
46676;DHT22;32412;51.478;5.694;2022-08-23T09:24:25;27.90;99.90
46676;DHT22;32412;51.478;5.694;2022-08-23T09:26:51;28.10;99.90
46676;DHT22;32412;51.478;5.694;2022-08-23T09:29:28;28.20;99.90
46676;DHT22;32412;51.478;5.694;2022-08-23T09:31:57;28.30;99.90
46676;DHT22;32412;51.478;5.694;2022-08-23T09:37:18;28.50;99.90
46676;DHT22;32412;51.478;5.694;2022-08-23T09:39:47;28.50;99.90
46676;DHT22;32412;51.478;5.694;2022-08-23T09:42:35;28.80;99.90
46676;DHT22;32412;51.478;5.694;2022-08-23T09:45:26;29.10;99.90
46676;DHT22;32412;51.478;5.694;2022-08-23T09:47:53;29.20;99.90
46676;DHT22;32412;51.478;5.694;2022-08-23T09:50:24;29.90;99.90
46676;DHT22;32412;51.478;5.694;2022-08-23T09:52:58;30.60;99.40
46676;DHT22;32412;51.478;5.694;2022-08-23T09:55:35;31.20;98.00
46676;DHT22;32412;51.478;5.694;2022-08-23T09:58:45;31.50;97.30
46676;DHT22;32412;51.478;5.694;2022-08-23T10:01:27;31.60;96.20
46676;DHT22;32412;51.478;5.694;2022-08-23T10:04:12;32.10;96.30
46676;DHT22;32412;51.478;5.694;2022-08-23T10:06:40;33.20;95.50
46676;DHT22;32412;51.478;5.694;2022-08-23T10:09:14;33.50;95.10
46676;DHT22;32412;51.478;5.694;2022-08-23T10:11:46;33.50;94.60
46676;DHT22;32412;51.478;5.694;2022-08-23T10:14:14;33.80;94.50
46676;DHT22;32412;51.478;5.694;2022-08-23T10:22:24;34.10;93.80
46676;DHT22;32412;51.478;5.694;2022-08-23T10:27:41;34.50;92.90
46676;DHT22;32412;51.478;5.694;2022-08-23T10:33:21;35.00;91.90
46676;DHT22;32412;51.478;5.694;2022-08-23T10:36:11;34.90;91.40
46676;DHT22;32412;51.478;5.694;2022-08-23T10:38:43;35.40;91.80
46676;DHT22;32412;51.478;5.694;2022-08-23T10:46:43;35.00;91.30
46676;DHT22;32412;51.478;5.694;2022-08-23T10:49:14;35.20;91.20
46676;DHT22;32412;51.478;5.694;2022-08-23T10:51:45;35.70;90.90
46676;DHT22;32412;51.478;5.694;2022-08-23T10:54:16;36.30;90.20
46676;DHT22;32412;51.478;5.694;2022-08-23T10:56:43;36.30;90.00
46676;DHT22;32412;51.478;5.694;2022-08-23T10:59:22;36.50;89.70
46676;DHT22;32412;51.478;5.694;2022-08-23T11:05:03;37.20;87.70
46676;DHT22;32412;51.478;5.694;2022-08-23T11:07:38;37.50;86.20
46676;DHT22;32412;51.478;5.694;2022-08-23T11:12:48;36.20;87.70
46676;DHT22;32412;51.478;5.694;2022-08-23T11:31:45;35.40;88.10
46676;DHT22;32412;51.478;5.694;2022-08-23T11:34:43;36.50;87.30
46676;DHT22;32412;51.478;5.694;2022-08-23T11:42:23;35.90;87.60
46676;DHT22;32412;51.478;5.694;2022-08-23T11:44:49;36.20;87.20
46676;DHT22;32412;51.478;5.694;2022-08-23T11:47:26;35.20;87.60
46676;DHT22;32412;51.478;5.694;2022-08-23T11:58:20;34.70;89.70
46676;DHT22;32412;51.478;5.694;2022-08-23T12:01:07;34.40;88.80
46676;DHT22;32412;51.478;5.694;2022-08-23T12:03:56;34.00;89.70
46676;DHT22;32412;51.478;5.694;2022-08-23T12:06:44;34.20;89.30
46676;DHT22;32412;51.478;5.694;2022-08-23T12:16:57;33.70;89.90
46676;DHT22;32412;51.478;5.694;2022-08-23T12:19:39;32.60;90.50
46676;DHT22;32412;51.478;5.694;2022-08-23T12:22:10;31.70;90.90
46676;DHT22;32412;51.478;5.694;2022-08-23T12:24:46;31.20;91.60
46676;DHT22;32412;51.478;5.694;2022-08-23T12:27:31;31.60;91.50
46676;DHT22;32412;51.478;5.694;2022-08-23T12:30:08;31.50;91.40
46676;DHT22;32412;51.478;5.694;2022-08-23T12:41:22;36.10;88.00
46676;DHT22;32412;51.478;5.694;2022-08-23T12:44:02;37.40;85.30
46676;DHT22;32412;51.478;5.694;2022-08-23T12:46:39;37.60;84.90
46676;DHT22;32412;51.478;5.694;2022-08-23T12:49:07;36.90;84.50
46676;DHT22;32412;51.478;5.694;2022-08-23T12:51:55;36.70;86.40
46676;DHT22;32412;51.478;5.694;2022-08-23T12:54:31;37.70;84.60
46676;DHT22;32412;51.478;5.694;2022-08-23T12:56:58;37.50;84.70
46676;DHT22;32412;51.478;5.694;2022-08-23T13:02:32;35.90;84.00
46676;DHT22;32412;51.478;5.694;2022-08-23T13:05:05;34.30;86.90
46676;DHT22;32412;51.478;5.694;2022-08-23T13:07:34;33.40;87.70
46676;DHT22;32412;51.478;5.694;2022-08-23T13:10:00;32.20;87.60
46676;DHT22;32412;51.478;5.694;2022-08-23T13:12:26;31.80;90.10
46676;DHT22;32412;51.478;5.694;2022-08-23T13:14:54;32.30;90.00
46676;DHT22;32412;51.478;5.694;2022-08-23T13:17:31;31.90;89.70
46676;DHT22;32412;51.478;5.694;2022-08-23T13:22:27;31.50;90.60
46676;DHT22;32412;51.478;5.694;2022-08-23T13:25:11;31.20;90.80
46676;DHT22;32412;51.478;5.694;2022-08-23T13:32:43;30.90;91.20
46676;DHT22;32412;51.478;5.694;2022-08-23T13:38:15;30.30;91.10
46676;DHT22;32412;51.478;5.694;2022-08-23T13:41:02;30.10;91.40
46676;DHT22;32412;51.478;5.694;2022-08-23T13:46:18;30.70;91.50
46676;DHT22;32412;51.478;5.694;2022-08-23T13:48:57;31.10;91.20
46676;DHT22;32412;51.478;5.694;2022-08-23T13:51:36;31.50;90.90
46676;DHT22;32412;51.478;5.694;2022-08-23T13:54:14;31.30;90.70
46676;DHT22;32412;51.478;5.694;2022-08-23T13:56:52;31.10;91.00
46676;DHT22;32412;51.478;5.694;2022-08-23T13:59:26;30.80;91.00
46676;DHT22;32412;51.478;5.694;2022-08-23T14:01:52;30.40;91.20
46676;DHT22;32412;51.478;5.694;2022-08-23T14:04:19;30.30;91.50
46676;DHT22;32412;51.478;5.694;2022-08-23T14:06:44;30.10;91.80
46676;DHT22;32412;51.478;5.694;2022-08-23T14:09:10;30.10;91.80
46676;DHT22;32412;51.478;5.694;2022-08-23T14:11:36;30.10;91.70
46676;DHT22;32412;51.478;5.694;2022-08-23T14:14:05;30.10;91.50
46676;DHT22;32412;51.478;5.694;2022-08-23T14:16:34;30.10;91.30
46676;DHT22;32412;51.478;5.694;2022-08-23T14:19:05;30.20;91.80
46676;DHT22;32412;51.478;5.694;2022-08-23T14:21:31;30.60;91.60
46676;DHT22;32412;51.478;5.694;2022-08-23T14:23:56;30.40;91.20
46676;DHT22;32412;51.478;5.694;2022-08-23T14:26:25;30.40;91.20
46676;DHT22;32412;51.478;5.694;2022-08-23T14:28:51;30.40;91.10
46676;DHT22;32412;51.478;5.694;2022-08-23T14:31:18;30.30;91.50
46676;DHT22;32412;51.478;5.694;2022-08-23T14:33:45;30.10;91.30
46676;DHT22;32412;51.478;5.694;2022-08-23T14:36:11;29.90;91.50
46676;DHT22;32412;51.478;5.694;2022-08-23T14:38:37;29.80;91.80
46676;DHT22;32412;51.478;5.694;2022-08-23T14:41:07;29.90;91.60
46676;DHT22;32412;51.478;5.694;2022-08-23T14:43:34;30.10;91.50
46676;DHT22;32412;51.478;5.694;2022-08-23T14:46:01;30.50;91.20
46676;DHT22;32412;51.478;5.694;2022-08-23T14:48:29;30.80;91.10
46676;DHT22;32412;51.478;5.694;2022-08-23T14:50:55;30.90;91.20
46676;DHT22;32412;51.478;5.694;2022-08-23T14:53:24;30.70;91.00
46676;DHT22;32412;51.478;5.694;2022-08-23T14:55:51;30.60;91.20
46676;DHT22;32412;51.478;5.694;2022-08-23T14:58:18;30.30;91.40
46676;DHT22;32412;51.478;5.694;2022-08-23T15:00:46;30.10;91.40
46676;DHT22;32412;51.478;5.694;2022-08-23T15:03:17;30.00;91.70
46676;DHT22;32412;51.478;5.694;2022-08-23T15:05:43;30.00;92.30
46676;DHT22;32412;51.478;5.694;2022-08-23T15:08:09;30.00;91.80
46676;DHT22;32412;51.478;5.694;2022-08-23T15:10:35;29.90;91.90
46676;DHT22;32412;51.478;5.694;2022-08-23T15:13:01;29.70;91.90
46676;DHT22;32412;51.478;5.694;2022-08-23T15:15:28;29.70;92.10
46676;DHT22;32412;51.478;5.694;2022-08-23T15:17:59;29.50;91.80
46676;DHT22;32412;51.478;5.694;2022-08-23T15:20:28;29.40;92.20
46676;DHT22;32412;51.478;5.694;2022-08-23T15:22:54;29.60;91.80
46676;DHT22;32412;51.478;5.694;2022-08-23T15:25:20;29.80;91.90
46676;DHT22;32412;51.478;5.694;2022-08-23T15:27:47;30.00;91.50
46676;DHT22;32412;51.478;5.694;2022-08-23T15:30:15;30.10;91.40
46676;DHT22;32412;51.478;5.694;2022-08-23T15:32:42;30.50;91.50
46676;DHT22;32412;51.478;5.694;2022-08-23T15:35:08;30.80;91.20
46676;DHT22;32412;51.478;5.694;2022-08-23T15:37:35;30.80;91.10
46676;DHT22;32412;51.478;5.694;2022-08-23T15:40:01;30.60;91.10
46676;DHT22;32412;51.478;5.694;2022-08-23T15:42:27;30.60;91.60
46676;DHT22;32412;51.478;5.694;2022-08-23T15:44:53;31.00;91.50
46676;DHT22;32412;51.478;5.694;2022-08-23T15:47:22;31.50;91.10
46676;DHT22;32412;51.478;5.694;2022-08-23T15:49:48;31.40;90.60
46676;DHT22;32412;51.478;5.694;2022-08-23T15:52:14;31.30;90.80
46676;DHT22;32412;51.478;5.694;2022-08-23T15:54:40;31.20;91.20
46676;DHT22;32412;51.478;5.694;2022-08-23T15:57:06;31.10;91.30
46676;DHT22;32412;51.478;5.694;2022-08-23T15:59:35;30.80;91.20
46676;DHT22;32412;51.478;5.694;2022-08-23T16:02:02;30.50;91.40
46676;DHT22;32412;51.478;5.694;2022-08-23T16:04:28;30.30;91.60
46676;DHT22;32412;51.478;5.694;2022-08-23T16:06:54;30.30;91.80
46676;DHT22;32412;51.478;5.694;2022-08-23T16:09:21;30.30;91.60
46676;DHT22;32412;51.478;5.694;2022-08-23T16:11:48;30.30;92.20
46676;DHT22;32412;51.478;5.694;2022-08-23T16:14:14;30.40;91.90
46676;DHT22;32412;51.478;5.694;2022-08-23T16:16:40;30.50;92.10
46676;DHT22;32412;51.478;5.694;2022-08-23T16:19:07;30.60;91.90
46676;DHT22;32412;51.478;5.694;2022-08-23T16:21:33;30.40;91.90
46676;DHT22;32412;51.478;5.694;2022-08-23T16:23:59;30.20;92.30
46676;DHT22;32412;51.478;5.694;2022-08-23T16:26:28;30.20;92.10
46676;DHT22;32412;51.478;5.694;2022-08-23T16:28:56;30.20;92.20
46676;DHT22;32412;51.478;5.694;2022-08-23T16:31:23;30.30;92.30
46676;DHT22;32412;51.478;5.694;2022-08-23T16:33:55;30.00;92.20
46676;DHT22;32412;51.478;5.694;2022-08-23T16:36:21;29.90;92.70
46676;DHT22;32412;51.478;5.694;2022-08-23T16:38:47;29.80;92.80
46676;DHT22;32412;51.478;5.694;2022-08-23T16:41:13;29.80;92.70
46676;DHT22;32412;51.478;5.694;2022-08-23T16:43:40;29.70;92.60
46676;DHT22;32412;51.478;5.694;2022-08-23T16:46:06;29.80;92.60
46676;DHT22;32412;51.478;5.694;2022-08-23T16:48:32;29.70;92.80
46676;DHT22;32412;51.478;5.694;2022-08-23T16:50:59;29.50;93.10
46676;DHT22;32412;51.478;5.694;2022-08-23T16:53:25;29.50;93.10
46676;DHT22;32412;51.478;5.694;2022-08-23T16:55:51;29.40;93.10
46676;DHT22;32412;51.478;5.694;2022-08-23T16:58:18;29.40;92.90
46676;DHT22;32412;51.478;5.694;2022-08-23T17:00:44;29.20;93.20
46676;DHT22;32412;51.478;5.694;2022-08-23T17:03:10;29.20;93.60
46676;DHT22;32412;51.478;5.694;2022-08-23T17:05:35;29.10;93.50
46676;DHT22;32412;51.478;5.694;2022-08-23T17:08:03;28.90;93.70
46676;DHT22;32412;51.478;5.694;2022-08-23T17:10:29;28.90;93.90
46676;DHT22;32412;51.478;5.694;2022-08-23T17:12:56;28.80;94.00
46676;DHT22;32412;51.478;5.694;2022-08-23T17:15:26;28.80;94.10
46676;DHT22;32412;51.478;5.694;2022-08-23T17:17:53;28.70;94.50
46676;DHT22;32412;51.478;5.694;2022-08-23T17:20:21;28.50;94.20
46676;DHT22;32412;51.478;5.694;2022-08-23T17:22:47;28.40;94.40
46676;DHT22;32412;51.478;5.694;2022-08-23T17:25:14;28.30;94.60
46676;DHT22;32412;51.478;5.694;2022-08-23T17:27:40;28.20;94.70
46676;DHT22;32412;51.478;5.694;2022-08-23T17:30:09;28.10;94.70
46676;DHT22;32412;51.478;5.694;2022-08-23T17:32:36;28.10;94.80
46676;DHT22;32412;51.478;5.694;2022-08-23T17:35:04;28.10;95.30